This is the latest recevied weather packets stored in our database for station/object VK3AGD-9. If no packets are shown the sender has not sent any weather packets the latest 10 day(s).
| Time | Temp. | Humidity | Pressure | Rain* | Wind** | Luminosity | Snow |
|---|---|---|---|---|---|---|---|
| 1787559366 | 13.33° C | 83% | - | 0 mm | - | - | - |
| 1787558502 | 13.89° C | 81% | - | 0 mm | - | - | - |
| 1787557541 | 14.44° C | 78% | - | 0 mm | - | - | - |
| 1787556677 | 14.44° C | 77% | - | 0 mm | - | - | - |
| 1787555813 | 15° C | 75% | - | 0 mm | - | - | - |
| 1787554854 | 15° C | 74% | - | 0 mm | - | - | - |
| 1787553991 | 15.56° C | 74% | - | 0 mm | - | - | - |
| 1787553029 | 15.56° C | 73% | - | 0 mm | - | - | - |
| 1787552165 | 15.56° C | 72% | - | 0 mm | - | - | - |
| 1787551302 | 15.56° C | 72% | - | 0 mm | - | - | - |
| 1787550341 | 15.56° C | 72% | - | 0 mm | - | - | - |
| 1787549477 | 16.11° C | 71% | - | 0 mm | - | - | - |
| 1787548614 | 16.11° C | 70% | - | 0 mm | - | - | - |
| 1787547654 | 16.11° C | 70% | - | 0 mm | - | - | - |
| 1787546790 | 16.67° C | 68% | - | 0 mm | - | - | - |
| 1787545829 | 16.67° C | 68% | - | 0 mm | - | - | - |
| 1787544965 | 16.11° C | 69% | - | 0 mm | - | - | - |
| 1787544102 | 16.67° C | 67% | - | 0 mm | - | - | - |
| 1787543141 | 16.67° C | 67% | - | 0 mm | - | - | - |
| 1787542278 | 16.67° C | 67% | - | 0 mm | - | - | - |
| 1787541414 | 17.78° C | 64% | - | 0 mm | - | - | - |
| 1787540454 | 17.78° C | 64% | - | 0 mm | - | - | - |
| 1787539590 | 17.22° C | 66% | - | 0 mm | - | - | - |
| 1787538629 | 16.67° C | 65% | - | 0 mm | - | - | - |
| 1787537765 | 16.67° C | 65% | - | 0 mm | - | - | - |
* Rain latest hour (hover to see other rain measurements)
** Current wind speed in m/s (hover to see current wind gust speed)